createdAt,value
2023-08-24T00:04:10.161Z,18.37
2023-08-24T00:09:17.831Z,18.36
2023-08-24T00:14:25.625Z,18.24
2023-08-24T00:19:32.883Z,18.11
2023-08-24T00:24:40.711Z,18.07
2023-08-24T00:29:51.835Z,18.10
2023-08-24T00:35:00.254Z,18.15
2023-08-24T00:40:11.356Z,18.12
2023-08-24T00:45:18.964Z,18.04
2023-08-24T00:50:26.541Z,17.85
2023-08-24T00:55:34.483Z,17.75
2023-08-24T01:00:42.181Z,17.71
2023-08-24T01:05:49.692Z,17.65
2023-08-24T01:11:08.297Z,17.64
2023-08-24T01:16:20.946Z,17.67
2023-08-24T01:21:29.415Z,17.62
2023-08-24T01:26:38.199Z,17.46
2023-08-24T01:31:45.777Z,17.43
2023-08-24T01:36:53.304Z,17.46
2023-08-24T01:42:04.801Z,17.37
2023-08-24T01:47:15.474Z,17.26
2023-08-24T01:52:24.168Z,17.25
2023-08-24T01:57:32.417Z,17.21
2023-08-24T02:02:40.975Z,17.17
2023-08-24T02:07:49.529Z,17.08
2023-08-24T02:12:57.233Z,16.94
2023-08-24T02:18:06.133Z,16.90
2023-08-24T02:23:13.702Z,16.92
2023-08-24T02:28:21.002Z,16.91
2023-08-24T02:33:28.604Z,16.84
2023-08-24T02:38:36.336Z,16.69
2023-08-24T02:43:46.267Z,16.63
2023-08-24T02:48:55.164Z,16.58
2023-08-24T02:54:02.937Z,16.44
2023-08-24T02:59:10.551Z,16.28
2023-08-24T03:04:18.404Z,16.17
2023-08-24T03:09:26.541Z,16.11
2023-08-24T03:14:35.075Z,16.09
2023-08-24T03:19:43.037Z,16.04
2023-08-24T03:24:50.469Z,15.95
2023-08-24T03:29:58.087Z,15.91
2023-08-24T03:35:06.607Z,15.93
2023-08-24T03:40:15.754Z,15.90
2023-08-24T03:45:23.854Z,15.87
2023-08-24T03:50:31.638Z,15.85
2023-08-24T03:55:39.593Z,15.84
2023-08-24T04:00:47.524Z,15.84
2023-08-24T04:05:55.073Z,15.85
2023-08-24T04:11:04.360Z,15.84
2023-08-24T04:16:12.411Z,15.82
2023-08-24T04:21:19.768Z,15.81
2023-08-24T04:26:27.472Z,15.79
2023-08-24T04:31:35.179Z,15.78
2023-08-24T04:36:42.549Z,15.78
2023-08-24T04:41:50.237Z,15.82
2023-08-24T04:46:57.962Z,15.84
2023-08-24T04:52:06.469Z,15.89
2023-08-24T04:57:14.580Z,15.95
2023-08-24T05:02:22.235Z,16.02
2023-08-24T05:07:29.665Z,16.09
2023-08-24T05:12:38.302Z,16.19
2023-08-24T05:17:45.711Z,16.28
2023-08-24T05:22:53.346Z,16.39
2023-08-24T05:28:00.857Z,16.50
2023-08-24T05:33:08.882Z,16.67
2023-08-24T05:38:16.887Z,16.88
2023-08-24T05:43:24.231Z,17.13
2023-08-24T05:48:34.816Z,17.36
2023-08-24T05:53:43.838Z,17.58
2023-08-24T05:58:51.308Z,17.81
2023-08-24T06:03:59.431Z,18.02
2023-08-24T06:09:10.319Z,18.24
2023-08-24T06:14:19.160Z,18.45
2023-08-24T06:19:26.541Z,18.62
2023-08-24T06:24:34.090Z,18.79
2023-08-24T06:29:44.865Z,18.93
2023-08-24T06:34:52.428Z,19.06
2023-08-24T06:39:59.637Z,19.13
2023-08-24T06:45:11.309Z,19.22
2023-08-24T06:50:18.502Z,19.33
2023-08-24T06:55:26.034Z,19.43
2023-08-24T07:00:33.435Z,19.56
2023-08-24T07:05:40.927Z,19.67
2023-08-24T07:10:48.319Z,19.75
2023-08-24T07:15:56.825Z,19.83
2023-08-24T07:21:04.478Z,19.96
2023-08-24T07:26:12.151Z,20.09
2023-08-24T07:31:20.291Z,20.21
2023-08-24T07:36:27.923Z,20.35
2023-08-24T07:41:35.690Z,20.48
2023-08-24T07:46:44.246Z,20.65
2023-08-24T07:51:51.659Z,20.84
2023-08-24T07:56:59.471Z,21.03
2023-08-24T08:02:06.880Z,21.22
2023-08-24T08:07:14.336Z,21.44
2023-08-24T08:12:21.749Z,21.71
2023-08-24T08:17:32.340Z,22.05
2023-08-24T08:22:41.442Z,22.44
2023-08-24T08:27:49.507Z,22.83
2023-08-24T08:32:57.710Z,23.15
2023-08-24T08:38:05.411Z,23.41
2023-08-24T08:43:13.062Z,23.65
2023-08-24T08:48:22.825Z,23.96
2023-08-24T08:53:30.746Z,24.23
2023-08-24T08:58:39.151Z,24.33
2023-08-24T09:03:47.257Z,24.26
2023-08-24T09:08:55.208Z,24.26
2023-08-24T09:14:02.896Z,24.36
2023-08-24T09:19:13.603Z,24.39
2023-08-24T09:24:31.368Z,24.48
2023-08-24T09:29:41.833Z,24.50
2023-08-24T09:34:49.423Z,24.52
2023-08-24T09:40:13.573Z,24.55
2023-08-24T09:45:21.258Z,24.62
2023-08-24T09:50:29.850Z,24.63
2023-08-24T09:55:41.618Z,24.63
2023-08-24T10:00:51.832Z,24.66
2023-08-24T10:06:06.409Z,24.60
2023-08-24T10:11:23.411Z,24.56
2023-08-24T10:16:32.496Z,24.66
2023-08-24T10:21:42.127Z,24.68
2023-08-24T10:26:50.333Z,24.72
2023-08-24T10:31:59.902Z,24.82
2023-08-24T10:37:14.989Z,24.90
2023-08-24T10:42:22.278Z,25.01
2023-08-24T10:47:29.962Z,25.06
2023-08-24T10:52:40.668Z,25.18
2023-08-24T10:57:57.629Z,25.24
2023-08-24T11:03:05.683Z,25.19
2023-08-24T11:08:14.106Z,25.09
2023-08-24T11:13:24.430Z,25.07
2023-08-24T11:18:32.561Z,25.15
2023-08-24T11:23:41.187Z,25.15
2023-08-24T11:28:48.816Z,25.04
2023-08-24T11:33:59.475Z,24.98
2023-08-24T11:39:07.348Z,24.94
2023-08-24T11:44:27.007Z,25.08
2023-08-24T11:49:37.134Z,25.25
2023-08-24T11:54:45.799Z,25.43
2023-08-24T11:59:54.133Z,25.57
2023-08-24T12:05:01.577Z,25.65
2023-08-24T12:10:11.535Z,25.73
2023-08-24T12:15:23.024Z,25.82
2023-08-24T12:20:33.137Z,25.91
2023-08-24T12:25:46.786Z,25.98
2023-08-24T12:30:55.644Z,26.06
2023-08-24T12:36:04.021Z,26.15
2023-08-24T12:41:11.562Z,26.26
2023-08-24T12:46:19.323Z,26.39
2023-08-24T12:51:27.146Z,26.43
2023-08-24T12:56:34.665Z,26.51
2023-08-24T13:01:42.652Z,26.54
2023-08-24T13:06:50.313Z,26.57
2023-08-24T13:11:57.862Z,26.64
2023-08-24T13:17:05.320Z,26.75
2023-08-24T13:23:42.793Z,26.85
2023-08-24T13:28:50.804Z,26.86
2023-08-24T13:33:58.075Z,26.87
2023-08-24T13:39:06.294Z,26.86
2023-08-24T13:44:13.596Z,26.81
2023-08-24T13:49:38.683Z,26.80
2023-08-24T13:54:53.533Z,26.81
2023-08-24T14:00:12.183Z,26.87
2023-08-24T14:05:19.894Z,26.90
2023-08-24T14:10:27.437Z,26.91
2023-08-24T14:15:34.888Z,26.86
2023-08-24T14:20:44.184Z,26.79
2023-08-24T14:25:52.000Z,26.72
2023-08-24T14:30:59.952Z,26.69
2023-08-24T14:36:08.157Z,26.67
2023-08-24T14:41:16.450Z,26.64
2023-08-24T14:46:23.822Z,26.52
2023-08-24T14:51:31.464Z,26.42
2023-08-24T14:56:38.960Z,26.33
2023-08-24T15:01:46.813Z,26.19
2023-08-24T15:06:54.197Z,26.05
2023-08-24T15:12:01.811Z,25.90
2023-08-24T15:17:09.398Z,25.81
2023-08-24T15:22:17.086Z,25.72
2023-08-24T15:27:24.492Z,25.62
2023-08-24T15:32:33.773Z,25.53
2023-08-24T15:37:42.226Z,25.45
2023-08-24T15:42:49.617Z,25.43
2023-08-24T15:47:58.094Z,25.50
2023-08-24T15:53:08.396Z,25.65
2023-08-24T15:58:16.033Z,25.78
2023-08-24T16:03:24.497Z,25.86
2023-08-24T16:08:32.484Z,25.92
2023-08-24T16:13:39.740Z,25.95
2023-08-24T16:23:16.294Z,25.92
2023-08-24T16:28:24.538Z,25.86
2023-08-24T16:33:32.128Z,25.82
2023-08-24T16:38:39.633Z,25.77
2023-08-24T16:43:47.250Z,25.70
2023-08-24T16:48:54.930Z,25.61
2023-08-24T16:54:02.433Z,25.53
2023-08-24T16:59:12.869Z,25.45
2023-08-24T17:04:20.691Z,25.38
2023-08-24T17:09:31.416Z,25.30
2023-08-24T17:14:39.674Z,25.19
2023-08-24T17:19:47.569Z,25.08
2023-08-24T17:24:56.764Z,24.96
2023-08-24T17:30:05.443Z,24.87
2023-08-24T17:35:15.274Z,24.76
2023-08-24T17:40:22.814Z,24.59
2023-08-24T17:45:30.360Z,24.40
2023-08-24T17:50:38.546Z,24.11
2023-08-24T17:55:46.656Z,23.82
2023-08-24T18:00:54.309Z,23.66
2023-08-24T18:06:01.759Z,23.46
2023-08-24T18:11:11.447Z,23.26
2023-08-24T18:16:19.314Z,23.17
2023-08-24T18:21:27.321Z,22.97
2023-08-24T18:26:34.989Z,22.67
2023-08-24T18:31:42.890Z,22.51
2023-08-24T18:36:50.627Z,22.48
2023-08-24T18:41:58.831Z,22.53
2023-08-24T18:47:09.472Z,22.39
2023-08-24T18:52:17.192Z,22.21
2023-08-24T18:57:25.293Z,22.02
2023-08-24T19:02:33.245Z,21.75
2023-08-24T19:07:42.562Z,21.55
2023-08-24T19:12:51.893Z,21.47
2023-08-24T19:18:00.733Z,21.38
2023-08-24T19:23:08.707Z,21.24
2023-08-24T19:28:16.045Z,21.07
2023-08-24T19:33:23.815Z,20.90
2023-08-24T19:38:31.309Z,20.77
2023-08-24T19:43:38.821Z,20.58
2023-08-24T19:48:46.211Z,20.44
2023-08-24T19:54:00.087Z,20.33
2023-08-24T19:59:09.025Z,20.34
2023-08-24T20:04:17.056Z,20.28
2023-08-24T20:09:25.197Z,20.19
2023-08-24T20:14:33.678Z,20.17
2023-08-24T20:19:41.205Z,20.15
2023-08-24T20:24:49.145Z,20.09
2023-08-24T20:29:56.902Z,20.04
2023-08-24T20:35:05.116Z,20.01
2023-08-24T20:40:14.565Z,19.93
2023-08-24T20:45:24.205Z,19.85
2023-08-24T20:50:34.408Z,19.71
2023-08-24T20:55:42.698Z,19.50
2023-08-24T21:00:50.831Z,19.39
2023-08-24T21:06:03.425Z,19.35
2023-08-24T21:11:11.440Z,19.37
2023-08-24T21:16:19.355Z,19.40
2023-08-24T21:21:27.162Z,19.32
2023-08-24T21:26:35.076Z,19.29
2023-08-24T21:31:43.330Z,19.21
2023-08-24T21:36:51.603Z,19.13
2023-08-24T21:42:00.974Z,19.10
2023-08-24T21:47:09.680Z,19.04
2023-08-24T21:52:19.800Z,18.89
2023-08-24T21:57:30.882Z,18.86
2023-08-24T22:02:38.980Z,18.82
2023-08-24T22:07:47.922Z,18.66
2023-08-24T22:12:55.664Z,18.60
2023-08-24T22:18:03.513Z,18.55
2023-08-24T22:23:11.048Z,18.47
2023-08-24T22:28:18.466Z,18.49
2023-08-24T22:33:26.355Z,18.56
2023-08-24T22:38:34.378Z,18.59
2023-08-24T22:43:42.552Z,18.46
2023-08-24T22:48:51.294Z,18.32
2023-08-24T22:56:44.362Z,18.20
2023-08-24T23:01:52.015Z,18.21
2023-08-24T23:07:10.176Z,18.17
2023-08-24T23:12:22.871Z,18.03
2023-08-24T23:17:30.815Z,17.91
2023-08-24T23:22:38.405Z,17.84
2023-08-24T23:27:45.915Z,17.77
2023-08-24T23:32:53.354Z,17.63
2023-08-24T23:38:00.878Z,17.51
2023-08-24T23:43:08.236Z,17.48
2023-08-24T23:48:16.260Z,17.49
2023-08-24T23:53:24.136Z,17.49
2023-08-24T23:58:32.607Z,17.40
